createdAt,value
2018-09-18T00:01:28.751Z,91.60
2018-09-18T00:04:02.690Z,91.60
2018-09-18T00:06:37.583Z,91.10
2018-09-18T00:09:11.898Z,91.10
2018-09-18T00:11:46.077Z,91.20
2018-09-18T00:14:20.144Z,91.10
2018-09-18T00:16:54.499Z,91.20
2018-09-18T00:19:29.253Z,91.10
2018-09-18T00:22:03.692Z,90.90
2018-09-18T00:24:38.107Z,91.00
2018-09-18T00:27:12.269Z,91.40
2018-09-18T00:29:46.914Z,91.00
2018-09-18T00:32:21.965Z,91.40
2018-09-18T00:34:56.798Z,91.00
2018-09-18T00:37:30.623Z,91.00
2018-09-18T00:40:05.077Z,90.90
2018-09-18T00:42:39.374Z,91.20
2018-09-18T00:45:13.822Z,90.90
2018-09-18T00:47:48.317Z,91.10
2018-09-18T00:50:22.673Z,91.30
2018-09-18T00:52:56.466Z,91.10
2018-09-18T00:55:30.828Z,91.00
2018-09-18T00:58:04.867Z,91.00
2018-09-18T01:00:39.070Z,90.70
2018-09-18T01:03:13.391Z,90.60
2018-09-18T01:05:48.015Z,90.80
2018-09-18T01:08:22.577Z,90.70
2018-09-18T01:10:57.254Z,91.10
2018-09-18T01:13:31.279Z,90.80
2018-09-18T01:16:05.246Z,90.30
2018-09-18T01:18:42.386Z,89.40
2018-09-18T01:21:16.813Z,89.90
2018-09-18T01:23:51.098Z,89.50
2018-09-18T01:26:25.767Z,89.80
2018-09-18T01:28:59.937Z,89.60
2018-09-18T01:31:34.481Z,89.40
2018-09-18T01:34:08.336Z,89.50
2018-09-18T01:36:42.353Z,89.00
2018-09-18T01:39:16.364Z,88.40
2018-09-18T01:41:50.142Z,89.30
2018-09-18T01:44:24.367Z,88.30
2018-09-18T01:46:58.454Z,89.20
2018-09-18T01:49:32.392Z,89.60
2018-09-18T01:52:06.797Z,88.40
2018-09-18T01:54:40.742Z,86.80
2018-09-18T01:57:14.729Z,88.30
2018-09-18T01:59:50.943Z,88.40
2018-09-18T02:02:25.273Z,88.80
2018-09-18T02:04:59.343Z,89.10
2018-09-18T02:07:33.649Z,88.90
2018-09-18T02:10:07.877Z,88.20
2018-09-18T02:12:42.429Z,88.90
2018-09-18T02:15:16.658Z,89.40
2018-09-18T02:17:51.468Z,90.20
2018-09-18T02:20:26.560Z,90.40
2018-09-18T02:23:05.727Z,90.00
2018-09-18T02:25:39.723Z,90.00
2018-09-18T02:28:13.683Z,90.20
2018-09-18T02:30:48.743Z,90.20
2018-09-18T02:33:23.657Z,90.60
2018-09-18T02:35:57.582Z,90.50
2018-09-18T02:38:32.773Z,90.70
2018-09-18T02:41:07.104Z,90.90
2018-09-18T02:43:41.419Z,91.00
2018-09-18T02:46:16.383Z,91.50
2018-09-18T02:48:50.682Z,91.70
2018-09-18T02:51:24.991Z,91.50
2018-09-18T02:53:58.857Z,91.60
2018-09-18T02:56:32.967Z,91.60
2018-09-18T02:59:07.824Z,91.80
2018-09-18T03:01:42.109Z,91.70
2018-09-18T03:04:16.406Z,91.90
2018-09-18T03:06:52.066Z,92.30
2018-09-18T03:09:26.068Z,92.20
2018-09-18T03:12:00.132Z,92.30
2018-09-18T03:14:34.557Z,92.10
2018-09-18T03:17:08.504Z,92.30
2018-09-18T03:19:42.429Z,92.20
2018-09-18T03:22:16.764Z,92.30
2018-09-18T03:24:51.748Z,92.30
2018-09-18T03:27:26.741Z,92.20
2018-09-18T03:30:00.898Z,92.00
2018-09-18T03:32:35.113Z,92.10
2018-09-18T03:35:09.443Z,91.90
2018-09-18T03:37:43.953Z,91.30
2018-09-18T03:40:18.246Z,91.60
2018-09-18T03:42:52.434Z,91.70
2018-09-18T03:45:27.053Z,91.70
2018-09-18T03:48:01.084Z,91.70
2018-09-18T03:50:35.275Z,91.50
2018-09-18T03:53:09.727Z,91.50
2018-09-18T03:55:43.833Z,90.30
2018-09-18T03:58:18.563Z,90.80
2018-09-18T04:00:52.760Z,89.20
2018-09-18T04:03:28.062Z,89.30
2018-09-18T04:06:02.142Z,88.90
2018-09-18T04:08:36.314Z,89.00
2018-09-18T04:11:11.467Z,89.40
2018-09-18T04:13:45.378Z,89.70
2018-09-18T04:16:19.755Z,89.60
2018-09-18T04:18:54.055Z,89.80
2018-09-18T04:21:42.041Z,90.20
2018-09-18T04:24:16.740Z,90.40
2018-09-18T04:26:51.853Z,90.80
2018-09-18T04:29:25.889Z,90.80
2018-09-18T04:32:00.016Z,90.90
2018-09-18T04:34:34.479Z,90.60
2018-09-18T04:37:09.563Z,90.80
2018-09-18T04:39:44.024Z,91.10
2018-09-18T04:42:19.007Z,91.20
2018-09-18T04:44:54.127Z,91.40
2018-09-18T04:47:29.309Z,91.30
2018-09-18T04:50:04.227Z,91.40
2018-09-18T04:52:39.088Z,91.40
2018-09-18T04:55:13.029Z,91.30
2018-09-18T04:57:47.080Z,91.20
2018-09-18T05:00:21.283Z,91.20
2018-09-18T05:02:55.367Z,90.90
2018-09-18T05:05:30.578Z,90.30
2018-09-18T05:08:04.936Z,90.30
2018-09-18T05:10:39.080Z,89.80
2018-09-18T05:13:13.977Z,89.90
2018-09-18T05:15:48.372Z,90.00
2018-09-18T05:18:23.043Z,90.40
2018-09-18T05:20:56.942Z,90.40
2018-09-18T05:23:31.377Z,89.10
2018-09-18T05:26:06.187Z,88.20
2018-09-18T05:28:40.873Z,89.80
2018-09-18T05:31:14.892Z,90.00
2018-09-18T05:33:50.034Z,88.90
2018-09-18T05:36:24.819Z,89.60
2018-09-18T05:38:59.899Z,90.10
2018-09-18T05:41:34.392Z,90.00
2018-09-18T05:44:08.814Z,89.90
2018-09-18T05:46:50.387Z,90.10
2018-09-18T05:49:26.390Z,88.90
2018-09-18T05:52:00.606Z,89.00
2018-09-18T05:54:35.041Z,88.30
2018-09-18T05:57:09.384Z,89.30
2018-09-18T05:59:43.437Z,88.50
2018-09-18T06:02:17.752Z,88.30
2018-09-18T06:04:51.788Z,88.00
2018-09-18T06:07:25.814Z,87.20
2018-09-18T06:10:00.063Z,86.00
2018-09-18T06:12:34.662Z,85.50
2018-09-18T06:15:08.797Z,84.10
2018-09-18T06:17:42.800Z,83.60
2018-09-18T06:20:16.771Z,83.70
2018-09-18T06:22:50.967Z,83.70
2018-09-18T06:25:25.437Z,83.90
2018-09-18T06:27:59.842Z,83.90
2018-09-18T06:30:33.999Z,82.70
2018-09-18T06:33:08.518Z,83.90
2018-09-18T06:35:42.508Z,84.60
2018-09-18T06:38:16.861Z,85.30
2018-09-18T06:40:51.314Z,84.40
2018-09-18T06:43:25.732Z,84.80
2018-09-18T06:45:59.742Z,83.40
2018-09-18T06:48:34.263Z,84.50
2018-09-18T06:51:08.947Z,84.40
2018-09-18T06:53:43.123Z,84.00
2018-09-18T06:56:17.133Z,84.70
2018-09-18T06:58:51.281Z,84.60
2018-09-18T07:01:25.898Z,83.70
2018-09-18T07:04:00.392Z,84.50
2018-09-18T07:06:34.388Z,84.70
2018-09-18T07:09:08.975Z,84.80
2018-09-18T07:11:43.498Z,84.10
2018-09-18T07:14:17.847Z,84.40
2018-09-18T07:16:52.479Z,83.40
2018-09-18T07:19:26.428Z,82.50
2018-09-18T07:22:00.528Z,81.90
2018-09-18T07:24:34.565Z,81.30
2018-09-18T07:27:08.843Z,81.90
2018-09-18T07:29:42.906Z,81.40
2018-09-18T07:32:16.727Z,79.50
2018-09-18T07:34:51.023Z,77.30
2018-09-18T07:37:25.255Z,77.90
2018-09-18T07:39:59.434Z,78.30
2018-09-18T07:42:33.517Z,77.50
2018-09-18T07:45:08.219Z,77.30
2018-09-18T07:47:42.123Z,75.10
2018-09-18T07:50:16.278Z,73.20
2018-09-18T07:52:50.737Z,72.60
2018-09-18T07:55:24.678Z,72.40
2018-09-18T07:57:58.523Z,70.90
2018-09-18T08:00:32.512Z,72.80
2018-09-18T08:03:07.427Z,71.90
2018-09-18T08:05:41.773Z,70.80
2018-09-18T08:08:16.235Z,68.40
2018-09-18T08:10:50.220Z,67.40
2018-09-18T08:13:24.615Z,66.10
2018-09-18T08:15:58.488Z,65.70
2018-09-18T08:18:32.607Z,64.30
2018-09-18T08:21:12.185Z,64.00
2018-09-18T08:23:46.101Z,62.60
2018-09-18T08:26:20.898Z,61.70
2018-09-18T08:28:55.868Z,62.50
2018-09-18T08:31:30.098Z,61.90
2018-09-18T08:34:04.264Z,62.30
2018-09-18T08:36:38.179Z,61.40
2018-09-18T08:39:12.228Z,60.20
2018-09-18T08:41:47.283Z,59.90
2018-09-18T08:44:21.443Z,59.60
2018-09-18T08:46:55.485Z,59.50
2018-09-18T08:49:29.935Z,58.70
2018-09-18T08:52:04.250Z,57.80
2018-09-18T08:54:38.440Z,56.70
2018-09-18T08:57:13.247Z,56.70
2018-09-18T08:59:47.743Z,56.70
2018-09-18T09:02:21.712Z,55.60
2018-09-18T09:04:55.704Z,55.10
2018-09-18T09:07:29.598Z,54.60
2018-09-18T09:10:04.527Z,54.60
2018-09-18T09:12:38.642Z,53.50
2018-09-18T09:15:12.730Z,53.40
2018-09-18T09:17:47.188Z,53.10
2018-09-18T09:20:21.175Z,53.70
2018-09-18T09:22:55.205Z,53.30
2018-09-18T09:25:29.849Z,52.20
2018-09-18T09:28:03.818Z,51.10
2018-09-18T09:30:38.370Z,50.30
2018-09-18T09:33:13.099Z,49.80
2018-09-18T09:35:48.194Z,49.80
2018-09-18T09:38:22.095Z,49.50
2018-09-18T09:40:56.337Z,48.30
2018-09-18T09:43:30.593Z,47.40
2018-09-18T09:46:04.874Z,48.10
2018-09-18T09:48:39.058Z,47.60
2018-09-18T09:51:13.318Z,46.60
2018-09-18T09:53:48.315Z,47.40
2018-09-18T09:56:23.034Z,47.20
2018-09-18T09:58:57.297Z,46.70
2018-09-18T10:01:37.060Z,46.40
2018-09-18T10:04:11.264Z,46.90
2018-09-18T10:06:45.241Z,46.40
2018-09-18T10:09:19.024Z,46.40
2018-09-18T10:11:52.953Z,46.40
2018-09-18T10:14:26.832Z,46.50
2018-09-18T10:17:01.091Z,46.60
2018-09-18T10:19:35.548Z,45.80
2018-09-18T10:22:09.653Z,45.70
2018-09-18T10:24:43.692Z,46.00
2018-09-18T10:27:18.108Z,45.70
2018-09-18T10:29:52.748Z,45.10
2018-09-18T10:32:27.162Z,45.50
2018-09-18T10:35:01.554Z,43.90
2018-09-18T10:37:35.475Z,44.40
2018-09-18T10:40:09.496Z,44.20
2018-09-18T10:42:44.543Z,43.70
2018-09-18T10:45:18.728Z,43.30
2018-09-18T10:47:53.088Z,43.30
2018-09-18T10:50:27.299Z,42.90
2018-09-18T10:53:01.187Z,43.30
2018-09-18T10:55:35.382Z,42.90
2018-09-18T10:58:09.443Z,42.40
2018-09-18T11:00:43.574Z,42.90
2018-09-18T11:03:17.563Z,43.50
2018-09-18T11:05:51.438Z,43.00
2018-09-18T11:08:33.221Z,43.30
2018-09-18T11:11:07.469Z,43.30
2018-09-18T11:13:41.279Z,44.50
2018-09-18T11:16:15.832Z,44.70
2018-09-18T11:18:49.916Z,44.40
2018-09-18T11:21:25.103Z,44.30
2018-09-18T11:23:59.629Z,44.10
2018-09-18T11:26:34.963Z,44.30
2018-09-18T11:29:09.429Z,43.60
2018-09-18T11:31:44.095Z,43.30
2018-09-18T11:34:18.250Z,43.10
2018-09-18T11:36:52.523Z,43.30
2018-09-18T11:39:27.385Z,42.70
2018-09-18T11:42:01.744Z,42.80
2018-09-18T11:44:36.569Z,42.20
2018-09-18T11:47:10.868Z,42.70
2018-09-18T11:49:45.045Z,42.40
2018-09-18T11:52:19.268Z,42.20
2018-09-18T11:54:54.759Z,41.80
2018-09-18T11:57:28.660Z,41.70
2018-09-18T12:00:02.912Z,41.10
2018-09-18T12:02:37.540Z,41.20
2018-09-18T12:05:12.410Z,41.40
2018-09-18T12:07:46.624Z,40.90
2018-09-18T12:10:20.874Z,40.70
2018-09-18T12:12:55.520Z,40.70
2018-09-18T12:15:29.886Z,40.70
2018-09-18T12:18:04.121Z,39.60
2018-09-18T12:20:38.875Z,39.10
2018-09-18T12:23:13.554Z,38.90
2018-09-18T12:25:47.949Z,38.80
2018-09-18T12:28:22.719Z,38.50
2018-09-18T12:30:59.164Z,38.30
2018-09-18T12:33:33.284Z,38.10
2018-09-18T12:36:08.254Z,36.70
2018-09-18T12:38:42.532Z,36.60
2018-09-18T12:41:16.801Z,36.60
2018-09-18T12:43:51.610Z,35.60
2018-09-18T12:46:26.683Z,35.40
2018-09-18T12:49:02.006Z,34.80
2018-09-18T12:51:36.024Z,34.90
2018-09-18T12:54:10.976Z,34.90
2018-09-18T12:56:44.982Z,35.30
2018-09-18T12:59:19.376Z,35.30
2018-09-18T13:01:53.534Z,35.40
2018-09-18T13:04:27.673Z,34.90
2018-09-18T13:07:02.295Z,34.10
2018-09-18T13:09:36.431Z,34.00
2018-09-18T13:12:11.075Z,33.90
2018-09-18T13:14:45.098Z,33.10
2018-09-18T13:17:19.738Z,33.20
2018-09-18T13:19:54.020Z,33.00
2018-09-18T13:22:28.303Z,32.70
2018-09-18T13:25:03.122Z,32.80
2018-09-18T13:27:37.189Z,32.10
2018-09-18T13:30:11.280Z,32.10
2018-09-18T13:32:45.537Z,32.40
2018-09-18T13:35:20.703Z,31.80
2018-09-18T13:37:55.434Z,31.20
2018-09-18T13:40:29.489Z,31.10
2018-09-18T13:43:04.065Z,31.40
2018-09-18T13:45:38.843Z,31.70
2018-09-18T13:48:13.925Z,31.20
2018-09-18T13:50:48.028Z,31.20
2018-09-18T13:53:21.933Z,31.80
2018-09-18T13:55:57.162Z,31.20
2018-09-18T13:58:31.573Z,30.80
2018-09-18T14:01:06.091Z,31.00
2018-09-18T14:03:40.074Z,31.60
2018-09-18T14:06:14.035Z,31.90
2018-09-18T14:08:48.581Z,32.00
2018-09-18T14:11:22.649Z,32.00
2018-09-18T14:13:56.828Z,31.30
2018-09-18T14:16:30.936Z,30.80
2018-09-18T14:19:05.916Z,30.50
2018-09-18T14:21:40.530Z,30.60
2018-09-18T14:24:15.102Z,30.70
2018-09-18T14:26:49.228Z,30.00
2018-09-18T14:29:24.510Z,29.00
2018-09-18T14:31:59.045Z,28.60
2018-09-18T14:34:33.142Z,28.60
2018-09-18T14:37:07.928Z,28.40
2018-09-18T14:39:45.588Z,28.80
2018-09-18T14:42:19.647Z,29.50
2018-09-18T14:44:53.918Z,29.30
2018-09-18T14:47:28.906Z,29.60
2018-09-18T14:50:03.258Z,30.00
2018-09-18T14:52:37.215Z,30.20
2018-09-18T14:55:11.659Z,29.90
2018-09-18T14:57:47.568Z,29.90
2018-09-18T15:00:22.259Z,30.00
2018-09-18T15:02:56.643Z,29.80
2018-09-18T15:05:30.442Z,29.20
2018-09-18T15:08:04.641Z,29.20
2018-09-18T15:10:38.673Z,29.30
2018-09-18T15:13:12.997Z,29.80
2018-09-18T15:15:47.805Z,29.90
2018-09-18T15:18:21.885Z,30.00
2018-09-18T15:20:56.228Z,29.80
2018-09-18T15:23:30.443Z,30.00
2018-09-18T15:26:04.679Z,30.40
2018-09-18T15:28:39.453Z,30.90
2018-09-18T15:31:13.354Z,31.00
2018-09-18T15:33:47.435Z,31.40
2018-09-18T15:36:21.510Z,32.00
2018-09-18T15:38:56.643Z,32.10
2018-09-18T15:41:30.834Z,32.20
2018-09-18T15:44:05.538Z,32.40
2018-09-18T15:46:40.923Z,33.00
2018-09-18T15:49:14.924Z,32.90
2018-09-18T15:51:49.708Z,32.60
2018-09-18T15:54:24.800Z,32.40
2018-09-18T15:56:59.054Z,32.80
2018-09-18T15:59:33.510Z,32.90
2018-09-18T16:02:08.203Z,32.80
2018-09-18T16:04:42.453Z,33.00
2018-09-18T16:07:16.731Z,32.90
2018-09-18T16:09:50.780Z,32.80
2018-09-18T16:12:24.744Z,32.60
2018-09-18T16:14:59.925Z,32.10
2018-09-18T16:17:35.174Z,32.50
2018-09-18T16:20:09.611Z,32.20
2018-09-18T16:22:43.657Z,32.00
2018-09-18T16:25:17.608Z,32.00
2018-09-18T16:27:51.682Z,31.50
2018-09-18T16:30:26.217Z,31.90
2018-09-18T16:33:00.340Z,31.90
2018-09-18T16:35:34.611Z,32.30
2018-09-18T16:38:08.633Z,33.20
2018-09-18T16:40:42.569Z,33.10
2018-09-18T16:43:17.872Z,33.80
2018-09-18T16:45:52.117Z,34.30
2018-09-18T16:48:27.245Z,34.70
2018-09-18T16:51:01.573Z,35.30
2018-09-18T16:53:35.684Z,35.40
2018-09-18T16:56:10.460Z,34.70
2018-09-18T16:58:44.729Z,35.60
2018-09-18T17:01:19.447Z,35.50
2018-09-18T17:03:53.660Z,35.50
2018-09-18T17:06:27.909Z,35.70
2018-09-18T17:09:02.791Z,36.20
2018-09-18T17:11:37.924Z,36.00
2018-09-18T17:14:12.877Z,36.20
2018-09-18T17:16:47.477Z,36.40
2018-09-18T17:19:21.851Z,36.60
2018-09-18T17:21:56.042Z,37.00
2018-09-18T17:24:30.530Z,36.80
2018-09-18T17:27:04.826Z,37.30
2018-09-18T17:29:39.078Z,38.30
2018-09-18T17:32:13.579Z,39.00
2018-09-18T17:34:48.059Z,40.60
2018-09-18T17:37:22.127Z,40.00
2018-09-18T17:39:56.300Z,41.80
2018-09-18T17:42:30.472Z,41.70
2018-09-18T17:45:06.104Z,43.20
2018-09-18T17:47:40.394Z,42.80
2018-09-18T17:50:14.422Z,41.90
2018-09-18T17:52:48.388Z,42.20
2018-09-18T17:55:22.438Z,42.50
2018-09-18T17:57:56.838Z,42.40
2018-09-18T18:00:31.260Z,43.60
2018-09-18T18:03:05.286Z,44.40
2018-09-18T18:05:39.731Z,45.10
2018-09-18T18:08:14.075Z,46.10
2018-09-18T18:10:48.218Z,47.30
2018-09-18T18:13:22.521Z,47.10
2018-09-18T18:15:56.380Z,47.30
2018-09-18T18:18:30.591Z,48.00
2018-09-18T18:21:05.076Z,49.20
2018-09-18T18:23:39.470Z,47.60
2018-09-18T18:26:13.537Z,48.70
2018-09-18T18:28:47.915Z,47.00
2018-09-18T18:31:22.845Z,48.20
2018-09-18T18:33:57.463Z,49.30
2018-09-18T18:36:32.546Z,48.80
2018-09-18T18:39:08.128Z,49.90
2018-09-18T18:41:42.576Z,51.00
2018-09-18T18:44:16.524Z,51.60
2018-09-18T18:46:50.953Z,51.50
2018-09-18T18:49:25.360Z,51.80
2018-09-18T18:51:59.775Z,51.60
2018-09-18T18:54:34.453Z,51.80
2018-09-18T18:57:08.441Z,52.70
2018-09-18T18:59:43.446Z,52.40
2018-09-18T19:02:17.917Z,54.30
2018-09-18T19:04:52.883Z,54.10
2018-09-18T19:07:26.990Z,54.90
2018-09-18T19:10:01.325Z,55.60
2018-09-18T19:12:35.745Z,55.50
2018-09-18T19:15:10.179Z,56.30
2018-09-18T19:17:44.939Z,56.20
2018-09-18T19:20:19.149Z,56.30
2018-09-18T19:22:53.813Z,57.40
2018-09-18T19:25:28.564Z,57.30
2018-09-18T19:28:03.068Z,57.80
2018-09-18T19:30:37.380Z,58.10
2018-09-18T19:33:11.656Z,58.40
2018-09-18T19:35:45.789Z,58.10
2018-09-18T19:38:21.670Z,57.80
2018-09-18T19:40:56.212Z,58.10
2018-09-18T19:43:31.248Z,58.10
2018-09-18T19:46:06.204Z,57.60
2018-09-18T19:48:41.336Z,57.40
2018-09-18T19:51:15.642Z,54.50
2018-09-18T19:53:49.976Z,54.00
2018-09-18T19:56:24.179Z,55.50
2018-09-18T19:58:58.407Z,55.00
2018-09-18T20:01:32.928Z,53.30
2018-09-18T20:04:07.126Z,54.90
2018-09-18T20:06:41.568Z,55.00
2018-09-18T20:09:15.860Z,54.50
2018-09-18T20:11:50.753Z,55.30
2018-09-18T20:14:24.956Z,56.10
2018-09-18T20:16:59.131Z,57.10
2018-09-18T20:19:33.443Z,56.70
2018-09-18T20:22:08.787Z,57.60
2018-09-18T20:24:43.501Z,57.10
2018-09-18T20:27:17.650Z,56.50
2018-09-18T20:29:51.726Z,55.80
2018-09-18T20:32:25.677Z,55.20
2018-09-18T20:34:59.555Z,55.80
2018-09-18T20:37:34.320Z,56.00
2018-09-18T20:40:08.674Z,55.70
2018-09-18T20:42:42.993Z,55.50
2018-09-18T20:45:18.149Z,55.30
2018-09-18T20:47:52.253Z,55.40
2018-09-18T20:50:29.613Z,55.70
2018-09-18T20:53:04.577Z,58.20
2018-09-18T20:55:38.730Z,58.60
2018-09-18T20:58:12.871Z,58.80
2018-09-18T21:00:47.003Z,59.50
2018-09-18T21:03:21.009Z,60.00
2018-09-18T21:05:56.029Z,60.00
2018-09-18T21:08:30.439Z,60.70
2018-09-18T21:11:04.903Z,60.90
2018-09-18T21:13:39.229Z,61.60
2018-09-18T21:16:13.365Z,62.40
2018-09-18T21:18:47.422Z,62.70
2018-09-18T21:21:21.674Z,63.30
2018-09-18T21:23:55.850Z,63.30
2018-09-18T21:26:30.108Z,63.60
2018-09-18T21:29:04.169Z,64.20
2018-09-18T21:31:38.194Z,64.20
2018-09-18T21:34:12.836Z,64.60
2018-09-18T21:36:47.231Z,65.20
2018-09-18T21:39:21.314Z,66.00
2018-09-18T21:41:55.280Z,66.70
2018-09-18T21:44:29.386Z,67.60
2018-09-18T21:47:03.836Z,67.20
2018-09-18T21:49:37.924Z,67.10
2018-09-18T21:52:12.173Z,67.80
2018-09-18T21:54:46.438Z,68.10
2018-09-18T21:57:20.634Z,68.30
2018-09-18T21:59:54.608Z,68.20
2018-09-18T22:02:28.828Z,68.70
2018-09-18T22:05:02.939Z,69.20
2018-09-18T22:07:38.194Z,70.10
2018-09-18T22:10:12.389Z,70.50
2018-09-18T22:12:46.596Z,71.60
2018-09-18T22:15:21.537Z,71.70
2018-09-18T22:17:56.274Z,72.30
2018-09-18T22:20:31.332Z,72.40
2018-09-18T22:23:06.298Z,72.80
2018-09-18T22:25:40.452Z,73.30
2018-09-18T22:28:14.604Z,74.00
2018-09-18T22:30:49.421Z,75.10
2018-09-18T22:33:23.387Z,75.70
2018-09-18T22:35:57.528Z,76.70
2018-09-18T22:38:32.333Z,77.70
2018-09-18T22:41:06.644Z,78.00
2018-09-18T22:43:40.780Z,78.90
2018-09-18T22:46:14.910Z,79.20
2018-09-18T22:48:48.927Z,79.60
2018-09-18T22:51:23.057Z,80.10
2018-09-18T22:53:57.822Z,80.60
2018-09-18T22:56:32.567Z,81.30
2018-09-18T22:59:07.047Z,81.90
2018-09-18T23:01:41.782Z,82.30
2018-09-18T23:04:15.716Z,83.00
2018-09-18T23:06:50.544Z,83.30
2018-09-18T23:09:25.043Z,84.30
2018-09-18T23:11:59.119Z,85.00
2018-09-18T23:14:33.469Z,85.60
2018-09-18T23:17:07.677Z,86.00
2018-09-18T23:19:41.514Z,86.30
2018-09-18T23:22:15.940Z,86.40
2018-09-18T23:24:49.957Z,87.30
2018-09-18T23:27:24.104Z,87.40
2018-09-18T23:29:58.257Z,87.80
2018-09-18T23:32:32.244Z,88.20
2018-09-18T23:35:06.861Z,88.70
2018-09-18T23:37:41.245Z,88.90
2018-09-18T23:40:15.567Z,89.10
2018-09-18T23:42:49.708Z,89.00
2018-09-18T23:45:24.662Z,88.90
2018-09-18T23:47:58.888Z,88.90
2018-09-18T23:50:32.876Z,89.20
2018-09-18T23:53:07.040Z,90.00
2018-09-18T23:55:41.428Z,89.90
2018-09-18T23:58:15.718Z,90.00
